KRVS/RVS METAR and TAF weather

Enter ICAO airport designator
Station Type Date Time Source
KRVS METAR 2023/01/30 10:53 UTC NOAA

KRVS 301053Z AUTO 35007KT 290V010 10SM OVC013 M07/M09 A3038 RMK AO2 SLP302 T10671094


Station Type Date Time Source
KRVS Decoded METAR 2023/01/30 10:53 UTC NOAA

TULSA JONES JR. AIRPORT, OK, United States (KRVS) 36-03N 095-59W 200M
Jan 30, 2023 - 05:53 AM EST / 2023.01.30 1053 UTC
Wind: from the N (350 degrees) at 8 MPH (7 KT) (direction variable):0
Visibility: 10 mile(s):0
Sky conditions: overcast
Temperature: 19.9 F (-6.7 C)
Windchill: 10 F (-12 C):1
Dew Point: 15.1 F (-9.4 C)
Relative Humidity: 81%
Pressure (altimeter): 30.38 in. Hg (1028 hPa)
ob: KRVS 301053Z AUTO 35007KT 290V010 10SM OVC013 M07/M09 A3038 RMK AO2 SLP302 T10671094
cycle: 11

Station Type Date Time Source
KRVS TAF 2023/01/30 12:20 UTC NOAA

TAF KRVS 301120Z 3012/3112 35007G18KT P6SM -FZDZ OVC010
FM301500 01012G18KT P6SM OVC015
TEMPO 3015/3019 5SM -PL BKN007
FM302300 02012KT P6SM OVC025

Example: see airport list